URSSLTCG

Guest
Details From URSS - Sochi
To LTCG - TRABZON
Flight Number -
Tags generated
Created
Modified
Stats Distance 149 nm / 276 km
Max Altitude 19,500 ft / 5,944 m
Waypoints 3
Social Downloads 1
Likes 0
Share VATSIM

Download

Looking for another format? Having issues loading an existing format? Contact us
Advertisement - Login to hide

Notes

Basic altitude profile: - Ascent Rate: 2500ft/min - Ascent Speed: 250kts - Cruise Altitude: 35000ft - Cruise Speed: 420kts - Descent Rate: 1500ft/min - Descent Speed: 250kts Options: - Use NATs: yes - Use PACOTS: yes - Use low airways: yes - Use high airways: yes

Route

URSS IDLER LTCG

ID Type Via Altitude Latitude Longitude Leg Dist Tot Dist Heading (true) Name
O URSS APT - 0 ft / 0 m 43.44475˚ 39.94730˚ - 0 nm - Sochi
IDLER FIX - 19,500 ft / 5,944 m 42.49000˚ 40.14333˚ 57 nm 57 nm 171° / 172° -
O LTCG APT - 0 ft / 0 m 40.99506˚ 39.78970˚ 91 nm 149 nm 190° / 190° TRABZON

Altitude Profile

Advertisement - Login to hide

URSS

Details ICAO URSS (AER)
Name Sochi
Region Russia
Timezone Europe/Moscow (UTC+3.0)
Stats Elevation 89 ft / 27 m (AMSL)
Location 43.444749° 39.947302°
Runways 2
Magnetic Variation 6.963° E

METAR

URSS 161700Z 05006MPS 9999 NSC 11/02 Q1018 R02/090070 R06/090070 NOSIG RMK R06/06004MPS QFE762

Decode

TAF

TAF URSS 161356Z 1615/1715 06006MPS 9999 SCT100 TEMPO 1703/1707 04007G12MPS BECMG 1707/1709 16005G10MPS SCT030 BKN100

Decode

Departure Runways

ID Width Length Bearing (true) Bearing (mag) Surface Threshold Offset Overrun Length
02 161 ft / 49 m 7,267 ft / 2,215 m 28.98° 22.02° Concrete 0 ft / 0 m 0 ft / 0 m
06 164 ft / 50 m 9,531 ft / 2,905 m 64.90° 57.94° Concrete 262 ft / 80 m 0 ft / 0 m
20 161 ft / 49 m 7,267 ft / 2,215 m 208.99° 202.03° Concrete 0 ft / 0 m 0 ft / 0 m
24 164 ft / 50 m 9,531 ft / 2,905 m 244.92° 237.96° Concrete 0 ft / 0 m 0 ft / 0 m

LTCG

Details ICAO LTCG (TZX)
Name TRABZON
Region Turkey
Timezone Europe/Istanbul (UTC+3.0)
Stats Elevation 104 ft / 32 m (AMSL)
Location 40.995060° 39.789701°
Runways 1
Magnetic Variation 6.320° E

METAR

LTCG 161650Z 19003KT 090V210 6000 NSC 12/05 Q1017 NOSIG

Decode

TAF

Not found

Destination Runways

ID Width Length Bearing (true) Bearing (mag) Surface Threshold Offset Overrun Length
11 148 ft / 45 m 8,609 ft / 2,624 m 112.32° 106.00° Asphalt 0 ft / 0 m 197 ft / 60 m
29 148 ft / 45 m 8,609 ft / 2,624 m 292.34° 286.02° Asphalt 0 ft / 0 m 197 ft / 60 m

Approach Navaids

Runway Type Ident Frequency Range Bearing (true) Bearing (mag) Slope Elevation
11 Localiser ITBZ 109.10 MHz 18 nm / 33 km 112.50° 106.18° - 95 ft / 29 m (AMSL)
11 Glidescope ITBZ 109.10 MHz 10 nm / 19 km 112.33° 106.01° 3.30° 104 ft / 32 m (AMSL)
11 DME ITBZ 109.10 MHz 18 nm / 33 km - - - 98 ft / 30 m (AMSL)